Ontario, CA

2:04 AM PST on December 10, 2016 (GMT -0800)
NW Ontario | | Change Station

Elev 1066 ft 34.07 °N, 117.66 °W | Updated 17 seconds ago

Scattered Clouds
Scattered Clouds
46.5 °F
Feels Like 46 °F
N
0.0
Wind Variable Wind from NE

Today
High -- | Low -- °F
--% Chance of Precip.
Yesterday
High -- | Low -- °F
Precip. -- in
Pressure 30.16 in
Visibility 5.0 miles
Clouds Few 1000 ft
Scattered Clouds 20000 ft
Windchill 46 °F
Dew Point 46 °F
Humidity 98%
Rainfall 0.00 in
Snow Depth Not available.
6:45 AM 4:41 PM
Waxing Gibbous, 82% visible
METAR KONT 100953Z 03003KT 5SM BR FEW010 SCT200 09/09 A3016 RMK AO2 SLP212 T00940089
Pressure 30.16 in
Visibility 5.0 miles
Clouds Few 1000 ft
Scattered Clouds 20000 ft
Windchill 46 °F
Dew Point 46 °F
Humidity 98%
Rainfall 0.00 in
Snow Depth Not available.
6:45 AM 4:41 PM
Waxing Gibbous, 82% visible
METAR KONT 100953Z 03003KT 5SM BR FEW010 SCT200 09/09 A3016 RMK AO2 SLP212 T00940089

10-Day Weather Forecast

Almanac

Astronomy

Dec. 10, 2016 Rise Set
Actual Time
Civil Twilight
Nautical Twilight
Astronomical Twilight
Moon
Length of Visible Light
Length of Day
Tomorrow will be .
, % of the Moon is Illuminated

Today's Extremes

State Highs State Lows

Community

WunderPhotos

Upload Photos

1,956,536 photos uploaded!

WunderBlog® & News

Nearby

Air Quality

  Air Quality AQ Index Pollutant
Not available.

Snow Depth

Station Depth Elevation

Earthquake Activity

City Distance Mag. Time & Date
Minimum magnitude displayed is 2.5.

Coastal Water Temperatures

Place Temperature

Stations

Nearby Weather Stations

Station Location Temp. Windchill Dew Point Humidity Wind Precip. Elev Updated Type
                   

Watches & Warnings

There are currently no watches in effect.